sensor_id;sensor_type;location;lat;lon;timestamp;P1;durP1;ratioP1;P2;durP2;ratioP2
8247;SDS011;4164;49.844;8.830;2024-01-11T00:00:38;0.20;;;0.20;;
8247;SDS011;4164;49.844;8.830;2024-01-11T00:03:03;0.60;;;0.50;;
8247;SDS011;4164;49.844;8.830;2024-01-11T00:05:29;0.33;;;0.33;;
8247;SDS011;4164;49.844;8.830;2024-01-11T00:07:55;0.67;;;0.67;;
8247;SDS011;4164;49.844;8.830;2024-01-11T00:10:20;4.90;;;1.60;;
8247;SDS011;4164;49.844;8.830;2024-01-11T00:12:46;0.60;;;0.43;;
8247;SDS011;4164;49.844;8.830;2024-01-11T00:15:12;0.30;;;0.30;;
8247;SDS011;4164;49.844;8.830;2024-01-11T00:17:38;0.20;;;0.20;;
8247;SDS011;4164;49.844;8.830;2024-01-11T00:20:03;2.57;;;2.47;;
8247;SDS011;4164;49.844;8.830;2024-01-11T00:22:30;0.30;;;0.30;;
8247;SDS011;4164;49.844;8.830;2024-01-11T00:24:55;0.30;;;0.30;;
8247;SDS011;4164;49.844;8.830;2024-01-11T00:27:21;0.10;;;0.10;;
8247;SDS011;4164;49.844;8.830;2024-01-11T00:29:46;1.37;;;1.37;;
8247;SDS011;4164;49.844;8.830;2024-01-11T00:32:15;0.40;;;0.40;;
8247;SDS011;4164;49.844;8.830;2024-01-11T00:34:41;1.03;;;1.03;;
8247;SDS011;4164;49.844;8.830;2024-01-11T00:37:06;0.37;;;0.37;;
8247;SDS011;4164;49.844;8.830;2024-01-11T00:39:32;0.20;;;0.20;;
8247;SDS011;4164;49.844;8.830;2024-01-11T00:42:00;0.93;;;0.60;;
8247;SDS011;4164;49.844;8.830;2024-01-11T00:44:26;0.63;;;0.63;;
8247;SDS011;4164;49.844;8.830;2024-01-11T00:46:51;1.03;;;1.03;;
8247;SDS011;4164;49.844;8.830;2024-01-11T00:49:17;0.37;;;0.37;;
8247;SDS011;4164;49.844;8.830;2024-01-11T00:51:42;0.97;;;0.97;;
8247;SDS011;4164;49.844;8.830;2024-01-11T00:54:11;0.63;;;0.63;;
8247;SDS011;4164;49.844;8.830;2024-01-11T00:56:37;0.63;;;0.60;;
8247;SDS011;4164;49.844;8.830;2024-01-11T00:59:03;0.20;;;0.20;;
8247;SDS011;4164;49.844;8.830;2024-01-11T01:01:29;0.20;;;0.20;;
8247;SDS011;4164;49.844;8.830;2024-01-11T01:03:54;1.50;;;0.67;;
8247;SDS011;4164;49.844;8.830;2024-01-11T01:06:20;1.40;;;1.40;;
8247;SDS011;4164;49.844;8.830;2024-01-11T01:08:46;0.57;;;0.57;;
8247;SDS011;4164;49.844;8.830;2024-01-11T01:11:11;1.13;;;1.03;;
8247;SDS011;4164;49.844;8.830;2024-01-11T01:13:37;0.60;;;0.60;;
8247;SDS011;4164;49.844;8.830;2024-01-11T01:16:02;0.20;;;0.20;;
8247;SDS011;4164;49.844;8.830;2024-01-11T01:18:28;0.20;;;0.20;;
8247;SDS011;4164;49.844;8.830;2024-01-11T01:20:59;0.63;;;0.63;;
8247;SDS011;4164;49.844;8.830;2024-01-11T01:23:25;0.30;;;0.30;;
8247;SDS011;4164;49.844;8.830;2024-01-11T01:25:50;1.00;;;1.00;;
8247;SDS011;4164;49.844;8.830;2024-01-11T01:28:16;0.30;;;0.30;;
8247;SDS011;4164;49.844;8.830;2024-01-11T01:30:42;1.23;;;1.13;;
8247;SDS011;4164;49.844;8.830;2024-01-11T01:33:07;0.87;;;0.73;;
8247;SDS011;4164;49.844;8.830;2024-01-11T01:35:33;0.20;;;0.20;;
8247;SDS011;4164;49.844;8.830;2024-01-11T01:37:59;0.50;;;0.37;;
8247;SDS011;4164;49.844;8.830;2024-01-11T01:40:25;0.10;;;0.10;;
8247;SDS011;4164;49.844;8.830;2024-01-11T01:42:57;0.20;;;0.20;;
8247;SDS011;4164;49.844;8.830;2024-01-11T01:45:27;0.50;;;0.43;;
8247;SDS011;4164;49.844;8.830;2024-01-11T01:47:52;0.10;;;0.10;;
8247;SDS011;4164;49.844;8.830;2024-01-11T01:50:21;0.33;;;0.33;;
8247;SDS011;4164;49.844;8.830;2024-01-11T01:52:47;0.30;;;0.30;;
8247;SDS011;4164;49.844;8.830;2024-01-11T01:55:14;0.77;;;0.77;;
8247;SDS011;4164;49.844;8.830;2024-01-11T01:57:41;0.10;;;0.10;;
8247;SDS011;4164;49.844;8.830;2024-01-11T02:00:09;1.90;;;1.80;;
8247;SDS011;4164;49.844;8.830;2024-01-11T02:02:36;1.60;;;1.50;;
8247;SDS011;4164;49.844;8.830;2024-01-11T02:05:04;0.83;;;0.83;;
8247;SDS011;4164;49.844;8.830;2024-01-11T02:07:31;1.70;;;1.47;;
8247;SDS011;4164;49.844;8.830;2024-01-11T02:09:57;0.57;;;0.53;;
8247;SDS011;4164;49.844;8.830;2024-01-11T02:12:23;0.33;;;0.33;;
8247;SDS011;4164;49.844;8.830;2024-01-11T02:14:50;0.90;;;0.90;;
8247;SDS011;4164;49.844;8.830;2024-01-11T02:17:18;0.53;;;0.53;;
8247;SDS011;4164;49.844;8.830;2024-01-11T02:19:43;0.20;;;0.20;;
8247;SDS011;4164;49.844;8.830;2024-01-11T02:22:12;0.40;;;0.40;;
8247;SDS011;4164;49.844;8.830;2024-01-11T02:24:48;0.40;;;0.40;;
8247;SDS011;4164;49.844;8.830;2024-01-11T02:27:13;0.30;;;0.30;;
8247;SDS011;4164;49.844;8.830;2024-01-11T02:29:39;3.63;;;2.80;;
8247;SDS011;4164;49.844;8.830;2024-01-11T02:32:05;0.20;;;0.20;;
8247;SDS011;4164;49.844;8.830;2024-01-11T02:34:31;0.50;;;0.50;;
8247;SDS011;4164;49.844;8.830;2024-01-11T02:36:57;0.30;;;0.30;;
8247;SDS011;4164;49.844;8.830;2024-01-11T02:39:23;1.00;;;0.83;;
8247;SDS011;4164;49.844;8.830;2024-01-11T02:41:50;0.67;;;0.67;;
8247;SDS011;4164;49.844;8.830;2024-01-11T02:44:17;0.33;;;0.33;;
8247;SDS011;4164;49.844;8.830;2024-01-11T02:46:42;0.20;;;0.20;;
8247;SDS011;4164;49.844;8.830;2024-01-11T02:49:08;1.10;;;1.00;;
8247;SDS011;4164;49.844;8.830;2024-01-11T02:51:34;0.10;;;0.10;;
8247;SDS011;4164;49.844;8.830;2024-01-11T02:54:03;0.20;;;0.20;;
8247;SDS011;4164;49.844;8.830;2024-01-11T02:56:29;0.30;;;0.30;;
8247;SDS011;4164;49.844;8.830;2024-01-11T02:58:55;0.50;;;0.50;;
8247;SDS011;4164;49.844;8.830;2024-01-11T03:01:20;0.23;;;0.23;;
8247;SDS011;4164;49.844;8.830;2024-01-11T03:03:47;0.20;;;0.20;;
8247;SDS011;4164;49.844;8.830;2024-01-11T03:06:12;1.90;;;1.80;;
8247;SDS011;4164;49.844;8.830;2024-01-11T03:08:47;0.20;;;0.20;;
8247;SDS011;4164;49.844;8.830;2024-01-11T03:11:13;0.40;;;0.40;;
8247;SDS011;4164;49.844;8.830;2024-01-11T03:13:39;0.67;;;0.67;;
8247;SDS011;4164;49.844;8.830;2024-01-11T03:16:04;0.60;;;0.60;;
8247;SDS011;4164;49.844;8.830;2024-01-11T03:18:30;0.50;;;0.50;;
8247;SDS011;4164;49.844;8.830;2024-01-11T03:20:56;0.20;;;0.20;;
8247;SDS011;4164;49.844;8.830;2024-01-11T03:23:22;0.77;;;0.77;;
8247;SDS011;4164;49.844;8.830;2024-01-11T03:25:50;0.20;;;0.20;;
8247;SDS011;4164;49.844;8.830;2024-01-11T03:28:16;0.10;;;0.10;;
8247;SDS011;4164;49.844;8.830;2024-01-11T03:30:42;2.77;;;2.10;;
8247;SDS011;4164;49.844;8.830;2024-01-11T03:33:08;0.23;;;0.23;;
8247;SDS011;4164;49.844;8.830;2024-01-11T03:35:34;0.30;;;0.30;;
8247;SDS011;4164;49.844;8.830;2024-01-11T03:37:59;0.30;;;0.30;;
8247;SDS011;4164;49.844;8.830;2024-01-11T03:40:25;0.83;;;0.83;;
8247;SDS011;4164;49.844;8.830;2024-01-11T03:42:51;0.47;;;0.43;;
8247;SDS011;4164;49.844;8.830;2024-01-11T03:45:20;0.40;;;0.40;;
8247;SDS011;4164;49.844;8.830;2024-01-11T03:47:45;1.33;;;0.87;;
8247;SDS011;4164;49.844;8.830;2024-01-11T03:50:11;0.47;;;0.47;;
8247;SDS011;4164;49.844;8.830;2024-01-11T03:52:36;3.67;;;1.20;;
8247;SDS011;4164;49.844;8.830;2024-01-11T03:55:04;0.13;;;0.13;;
8247;SDS011;4164;49.844;8.830;2024-01-11T03:57:29;1.50;;;1.50;;
8247;SDS011;4164;49.844;8.830;2024-01-11T03:59:55;0.60;;;0.60;;
8247;SDS011;4164;49.844;8.830;2024-01-11T04:02:21;0.40;;;0.40;;
8247;SDS011;4164;49.844;8.830;2024-01-11T04:04:46;0.73;;;0.73;;
8247;SDS011;4164;49.844;8.830;2024-01-11T04:07:15;0.70;;;0.60;;
8247;SDS011;4164;49.844;8.830;2024-01-11T04:09:41;0.40;;;0.40;;
8247;SDS011;4164;49.844;8.830;2024-01-11T04:12:07;2.13;;;2.03;;
8247;SDS011;4164;49.844;8.830;2024-01-11T04:14:33;0.80;;;0.80;;
8247;SDS011;4164;49.844;8.830;2024-01-11T04:17:02;0.73;;;0.73;;
8247;SDS011;4164;49.844;8.830;2024-01-11T04:19:31;0.33;;;0.33;;
8247;SDS011;4164;49.844;8.830;2024-01-11T04:21:57;0.23;;;0.23;;
8247;SDS011;4164;49.844;8.830;2024-01-11T04:24:23;2.13;;;1.70;;
8247;SDS011;4164;49.844;8.830;2024-01-11T04:26:48;0.47;;;0.47;;
8247;SDS011;4164;49.844;8.830;2024-01-11T04:29:14;0.13;;;0.13;;
8247;SDS011;4164;49.844;8.830;2024-01-11T04:31:39;1.50;;;1.40;;
8247;SDS011;4164;49.844;8.830;2024-01-11T04:34:05;0.47;;;0.47;;
8247;SDS011;4164;49.844;8.830;2024-01-11T04:36:30;1.47;;;1.37;;
8247;SDS011;4164;49.844;8.830;2024-01-11T04:38:56;0.30;;;0.30;;
8247;SDS011;4164;49.844;8.830;2024-01-11T04:41:21;0.20;;;0.20;;
8247;SDS011;4164;49.844;8.830;2024-01-11T04:43:47;0.20;;;0.20;;
8247;SDS011;4164;49.844;8.830;2024-01-11T04:48:39;0.40;;;0.40;;
8247;SDS011;4164;49.844;8.830;2024-01-11T04:51:05;0.73;;;0.73;;
8247;SDS011;4164;49.844;8.830;2024-01-11T04:53:30;0.27;;;0.27;;
8247;SDS011;4164;49.844;8.830;2024-01-11T04:55:56;0.30;;;0.30;;
8247;SDS011;4164;49.844;8.830;2024-01-11T04:58:24;4.90;;;1.40;;
8247;SDS011;4164;49.844;8.830;2024-01-11T05:00:50;0.53;;;0.53;;
8247;SDS011;4164;49.844;8.830;2024-01-11T05:03:15;3.60;;;1.23;;
8247;SDS011;4164;49.844;8.830;2024-01-11T05:05:41;0.20;;;0.20;;
8247;SDS011;4164;49.844;8.830;2024-01-11T05:08:06;0.20;;;0.20;;
8247;SDS011;4164;49.844;8.830;2024-01-11T05:10:32;0.30;;;0.30;;
8247;SDS011;4164;49.844;8.830;2024-01-11T05:12:58;0.23;;;0.23;;
8247;SDS011;4164;49.844;8.830;2024-01-11T05:15:23;0.30;;;0.30;;
8247;SDS011;4164;49.844;8.830;2024-01-11T05:17:49;0.50;;;0.50;;
8247;SDS011;4164;49.844;8.830;2024-01-11T05:20:14;1.90;;;1.17;;
8247;SDS011;4164;49.844;8.830;2024-01-11T05:22:40;1.60;;;1.50;;
8247;SDS011;4164;49.844;8.830;2024-01-11T05:25:05;2.13;;;1.50;;
8247;SDS011;4164;49.844;8.830;2024-01-11T05:27:31;0.40;;;0.40;;
8247;SDS011;4164;49.844;8.830;2024-01-11T05:29:56;0.70;;;0.70;;
8247;SDS011;4164;49.844;8.830;2024-01-11T05:32:25;0.23;;;0.23;;
8247;SDS011;4164;49.844;8.830;2024-01-11T05:34:51;0.40;;;0.40;;
8247;SDS011;4164;49.844;8.830;2024-01-11T05:37:16;0.67;;;0.67;;
8247;SDS011;4164;49.844;8.830;2024-01-11T05:39:42;0.63;;;0.63;;
8247;SDS011;4164;49.844;8.830;2024-01-11T05:42:07;0.20;;;0.20;;
8247;SDS011;4164;49.844;8.830;2024-01-11T05:44:33;0.20;;;0.20;;
8247;SDS011;4164;49.844;8.830;2024-01-11T05:46:58;0.40;;;0.40;;
8247;SDS011;4164;49.844;8.830;2024-01-11T05:49:24;0.77;;;0.77;;
8247;SDS011;4164;49.844;8.830;2024-01-11T05:51:49;0.60;;;0.60;;
8247;SDS011;4164;49.844;8.830;2024-01-11T05:54:15;0.27;;;0.27;;
8247;SDS011;4164;49.844;8.830;2024-01-11T05:56:40;0.30;;;0.30;;
8247;SDS011;4164;49.844;8.830;2024-01-11T05:59:06;0.87;;;0.87;;
8247;SDS011;4164;49.844;8.830;2024-01-11T06:01:32;2.30;;;2.00;;
8247;SDS011;4164;49.844;8.830;2024-01-11T06:03:57;0.43;;;0.43;;
8247;SDS011;4164;49.844;8.830;2024-01-11T06:06:23;1.07;;;1.07;;
8247;SDS011;4164;49.844;8.830;2024-01-11T06:08:48;1.17;;;1.17;;
8247;SDS011;4164;49.844;8.830;2024-01-11T06:11:14;2.00;;;1.90;;
8247;SDS011;4164;49.844;8.830;2024-01-11T06:13:40;0.60;;;0.60;;
8247;SDS011;4164;49.844;8.830;2024-01-11T06:16:06;0.70;;;0.70;;
8247;SDS011;4164;49.844;8.830;2024-01-11T06:18:32;0.20;;;0.20;;
8247;SDS011;4164;49.844;8.830;2024-01-11T06:20:58;2.10;;;1.17;;
8247;SDS011;4164;49.844;8.830;2024-01-11T06:23:25;0.83;;;0.43;;
8247;SDS011;4164;49.844;8.830;2024-01-11T06:25:50;0.20;;;0.20;;
8247;SDS011;4164;49.844;8.830;2024-01-11T06:28:16;2.00;;;0.83;;
8247;SDS011;4164;49.844;8.830;2024-01-11T06:30:41;0.43;;;0.43;;
8247;SDS011;4164;49.844;8.830;2024-01-11T06:33:08;1.50;;;1.40;;
8247;SDS011;4164;49.844;8.830;2024-01-11T06:35:33;0.40;;;0.40;;
8247;SDS011;4164;49.844;8.830;2024-01-11T06:37:59;0.83;;;0.83;;
8247;SDS011;4164;49.844;8.830;2024-01-11T06:40:25;2.27;;;0.43;;
8247;SDS011;4164;49.844;8.830;2024-01-11T06:42:51;1.07;;;1.07;;
8247;SDS011;4164;49.844;8.830;2024-01-11T06:45:17;1.13;;;1.07;;
8247;SDS011;4164;49.844;8.830;2024-01-11T06:47:42;0.30;;;0.30;;
8247;SDS011;4164;49.844;8.830;2024-01-11T06:50:11;0.30;;;0.30;;
8247;SDS011;4164;49.844;8.830;2024-01-11T06:52:37;13.53;;;1.07;;
8247;SDS011;4164;49.844;8.830;2024-01-11T06:55:03;0.20;;;0.20;;
8247;SDS011;4164;49.844;8.830;2024-01-11T06:57:29;0.23;;;0.23;;
8247;SDS011;4164;49.844;8.830;2024-01-11T06:59:55;0.60;;;0.60;;
8247;SDS011;4164;49.844;8.830;2024-01-11T07:02:21;0.67;;;0.67;;
8247;SDS011;4164;49.844;8.830;2024-01-11T07:04:47;1.63;;;1.53;;
8247;SDS011;4164;49.844;8.830;2024-01-11T07:07:12;0.60;;;0.60;;
8247;SDS011;4164;49.844;8.830;2024-01-11T07:09:38;0.70;;;0.70;;
8247;SDS011;4164;49.844;8.830;2024-01-11T07:12:04;0.27;;;0.27;;
8247;SDS011;4164;49.844;8.830;2024-01-11T07:14:33;1.17;;;1.17;;
8247;SDS011;4164;49.844;8.830;2024-01-11T07:16:58;0.30;;;0.30;;
8247;SDS011;4164;49.844;8.830;2024-01-11T07:19:24;0.30;;;0.30;;
8247;SDS011;4164;49.844;8.830;2024-01-11T07:21:49;0.30;;;0.30;;
8247;SDS011;4164;49.844;8.830;2024-01-11T07:24:15;1.13;;;0.57;;
8247;SDS011;4164;49.844;8.830;2024-01-11T07:26:40;0.73;;;0.73;;
8247;SDS011;4164;49.844;8.830;2024-01-11T07:29:06;0.40;;;0.40;;
8247;SDS011;4164;49.844;8.830;2024-01-11T07:31:35;1.97;;;1.23;;
8247;SDS011;4164;49.844;8.830;2024-01-11T07:34:00;0.50;;;0.50;;
8247;SDS011;4164;49.844;8.830;2024-01-11T07:36:26;3.80;;;3.50;;
8247;SDS011;4164;49.844;8.830;2024-01-11T07:38:52;0.80;;;0.80;;
8247;SDS011;4164;49.844;8.830;2024-01-11T07:41:18;0.20;;;0.20;;
8247;SDS011;4164;49.844;8.830;2024-01-11T07:43:44;0.57;;;0.57;;
8247;SDS011;4164;49.844;8.830;2024-01-11T07:46:09;0.40;;;0.40;;
8247;SDS011;4164;49.844;8.830;2024-01-11T07:48:35;0.20;;;0.20;;
8247;SDS011;4164;49.844;8.830;2024-01-11T07:51:00;0.20;;;0.20;;
8247;SDS011;4164;49.844;8.830;2024-01-11T07:53:27;0.50;;;0.50;;
8247;SDS011;4164;49.844;8.830;2024-01-11T07:55:52;0.30;;;0.30;;
8247;SDS011;4164;49.844;8.830;2024-01-11T07:58:18;1.67;;;1.60;;
8247;SDS011;4164;49.844;8.830;2024-01-11T08:00:45;0.27;;;0.27;;
8247;SDS011;4164;49.844;8.830;2024-01-11T08:03:12;0.50;;;0.50;;
8247;SDS011;4164;49.844;8.830;2024-01-11T08:05:37;0.57;;;0.57;;
8247;SDS011;4164;49.844;8.830;2024-01-11T08:08:03;0.23;;;0.23;;
8247;SDS011;4164;49.844;8.830;2024-01-11T08:10:29;0.53;;;0.53;;
8247;SDS011;4164;49.844;8.830;2024-01-11T08:12:58;0.27;;;0.27;;
8247;SDS011;4164;49.844;8.830;2024-01-11T08:15:24;0.73;;;0.73;;
8247;SDS011;4164;49.844;8.830;2024-01-11T08:17:50;0.83;;;0.83;;
8247;SDS011;4164;49.844;8.830;2024-01-11T08:20:15;0.33;;;0.33;;
8247;SDS011;4164;49.844;8.830;2024-01-11T08:22:41;0.63;;;0.63;;
8247;SDS011;4164;49.844;8.830;2024-01-11T08:25:08;1.33;;;0.87;;
8247;SDS011;4164;49.844;8.830;2024-01-11T08:27:34;0.40;;;0.40;;
8247;SDS011;4164;49.844;8.830;2024-01-11T08:30:00;0.73;;;0.73;;
8247;SDS011;4164;49.844;8.830;2024-01-11T08:32:25;0.10;;;0.10;;
8247;SDS011;4164;49.844;8.830;2024-01-11T08:34:51;0.13;;;0.13;;
8247;SDS011;4164;49.844;8.830;2024-01-11T08:37:21;1.63;;;1.53;;
8247;SDS011;4164;49.844;8.830;2024-01-11T08:39:48;2.00;;;1.70;;
8247;SDS011;4164;49.844;8.830;2024-01-11T08:42:14;4.23;;;1.33;;
8247;SDS011;4164;49.844;8.830;2024-01-11T08:44:43;0.73;;;0.73;;
8247;SDS011;4164;49.844;8.830;2024-01-11T08:47:09;0.60;;;0.57;;
8247;SDS011;4164;49.844;8.830;2024-01-11T08:49:38;0.50;;;0.50;;
8247;SDS011;4164;49.844;8.830;2024-01-11T08:52:04;0.17;;;0.17;;
8247;SDS011;4164;49.844;8.830;2024-01-11T08:54:33;0.40;;;0.30;;
8247;SDS011;4164;49.844;8.830;2024-01-11T08:56:59;1.53;;;1.43;;
8247;SDS011;4164;49.844;8.830;2024-01-11T08:59:25;1.23;;;1.13;;
8247;SDS011;4164;49.844;8.830;2024-01-11T09:01:53;0.20;;;0.20;;
8247;SDS011;4164;49.844;8.830;2024-01-11T09:04:19;0.20;;;0.20;;
8247;SDS011;4164;49.844;8.830;2024-01-11T09:06:44;0.50;;;0.50;;
8247;SDS011;4164;49.844;8.830;2024-01-11T09:09:16;1.63;;;1.63;;
8247;SDS011;4164;49.844;8.830;2024-01-11T09:11:42;0.37;;;0.37;;
8247;SDS011;4164;49.844;8.830;2024-01-11T09:14:07;3.17;;;1.83;;
8247;SDS011;4164;49.844;8.830;2024-01-11T09:16:36;0.13;;;0.13;;
8247;SDS011;4164;49.844;8.830;2024-01-11T09:19:01;1.97;;;1.77;;
8247;SDS011;4164;49.844;8.830;2024-01-11T09:21:27;0.40;;;0.40;;
8247;SDS011;4164;49.844;8.830;2024-01-11T09:23:52;0.20;;;0.20;;
8247;SDS011;4164;49.844;8.830;2024-01-11T09:26:18;1.17;;;1.17;;
8247;SDS011;4164;49.844;8.830;2024-01-11T09:28:44;4.13;;;1.70;;
8247;SDS011;4164;49.844;8.830;2024-01-11T09:31:10;0.40;;;0.40;;
8247;SDS011;4164;49.844;8.830;2024-01-11T09:33:36;1.03;;;1.03;;
8247;SDS011;4164;49.844;8.830;2024-01-11T09:36:02;1.07;;;1.07;;
8247;SDS011;4164;49.844;8.830;2024-01-11T09:38:28;1.50;;;1.40;;
8247;SDS011;4164;49.844;8.830;2024-01-11T09:41:05;2.83;;;2.63;;
8247;SDS011;4164;49.844;8.830;2024-01-11T09:43:33;1.27;;;1.27;;
8247;SDS011;4164;49.844;8.830;2024-01-11T09:46:00;4.17;;;3.77;;
8247;SDS011;4164;49.844;8.830;2024-01-11T09:48:28;6.43;;;3.93;;
8247;SDS011;4164;49.844;8.830;2024-01-11T09:50:56;7.97;;;3.23;;
8247;SDS011;4164;49.844;8.830;2024-01-11T09:53:27;3.00;;;2.40;;
8247;SDS011;4164;49.844;8.830;2024-01-11T09:55:53;2.47;;;2.27;;
8247;SDS011;4164;49.844;8.830;2024-01-11T09:58:20;4.10;;;2.40;;
8247;SDS011;4164;49.844;8.830;2024-01-11T10:00:47;2.00;;;1.83;;
8247;SDS011;4164;49.844;8.830;2024-01-11T10:03:24;4.57;;;2.87;;
8247;SDS011;4164;49.844;8.830;2024-01-11T10:05:51;3.60;;;1.93;;
8247;SDS011;4164;49.844;8.830;2024-01-11T10:08:21;4.67;;;2.90;;
8247;SDS011;4164;49.844;8.830;2024-01-11T10:10:47;3.43;;;2.37;;
8247;SDS011;4164;49.844;8.830;2024-01-11T10:13:13;4.27;;;2.47;;
8247;SDS011;4164;49.844;8.830;2024-01-11T10:15:39;3.47;;;2.67;;
8247;SDS011;4164;49.844;8.830;2024-01-11T10:18:04;6.30;;;3.43;;
8247;SDS011;4164;49.844;8.830;2024-01-11T10:20:30;4.40;;;1.97;;
8247;SDS011;4164;49.844;8.830;2024-01-11T10:22:57;1.60;;;1.47;;
8247;SDS011;4164;49.844;8.830;2024-01-11T10:25:26;3.93;;;2.93;;
8247;SDS011;4164;49.844;8.830;2024-01-11T10:27:52;6.83;;;3.00;;
8247;SDS011;4164;49.844;8.830;2024-01-11T10:30:17;2.10;;;2.00;;
8247;SDS011;4164;49.844;8.830;2024-01-11T10:32:45;1.90;;;1.80;;
8247;SDS011;4164;49.844;8.830;2024-01-11T10:35:11;5.20;;;2.10;;
8247;SDS011;4164;49.844;8.830;2024-01-11T10:37:40;2.40;;;2.20;;
8247;SDS011;4164;49.844;8.830;2024-01-11T10:40:08;4.37;;;2.90;;
8247;SDS011;4164;49.844;8.830;2024-01-11T10:42:50;4.03;;;2.77;;
8247;SDS011;4164;49.844;8.830;2024-01-11T10:45:23;4.30;;;2.83;;
8247;SDS011;4164;49.844;8.830;2024-01-11T10:47:51;6.63;;;4.07;;
8247;SDS011;4164;49.844;8.830;2024-01-11T10:50:22;8.83;;;3.77;;
8247;SDS011;4164;49.844;8.830;2024-01-11T10:53:04;6.03;;;4.07;;
8247;SDS011;4164;49.844;8.830;2024-01-11T10:55:37;6.53;;;4.00;;
8247;SDS011;4164;49.844;8.830;2024-01-11T10:58:05;5.73;;;3.93;;
8247;SDS011;4164;49.844;8.830;2024-01-11T11:00:34;4.37;;;2.80;;
8247;SDS011;4164;49.844;8.830;2024-01-11T11:03:04;5.73;;;3.53;;
8247;SDS011;4164;49.844;8.830;2024-01-11T11:05:31;5.27;;;3.07;;
8247;SDS011;4164;49.844;8.830;2024-01-11T11:08:00;2.43;;;1.83;;
8247;SDS011;4164;49.844;8.830;2024-01-11T11:10:27;8.00;;;3.17;;
8247;SDS011;4164;49.844;8.830;2024-01-11T11:12:54;3.80;;;2.43;;
8247;SDS011;4164;49.844;8.830;2024-01-11T11:15:23;6.83;;;3.53;;
8247;SDS011;4164;49.844;8.830;2024-01-11T11:17:49;9.63;;;3.60;;
8247;SDS011;4164;49.844;8.830;2024-01-11T11:20:18;5.77;;;4.00;;
8247;SDS011;4164;49.844;8.830;2024-01-11T11:22:47;6.43;;;3.53;;
8247;SDS011;4164;49.844;8.830;2024-01-11T11:25:26;5.50;;;3.50;;
8247;SDS011;4164;49.844;8.830;2024-01-11T11:27:54;9.87;;;4.47;;
8247;SDS011;4164;49.844;8.830;2024-01-11T11:30:20;6.50;;;3.60;;
8247;SDS011;4164;49.844;8.830;2024-01-11T11:32:46;7.73;;;5.00;;
8247;SDS011;4164;49.844;8.830;2024-01-11T11:35:11;6.63;;;4.67;;
8247;SDS011;4164;49.844;8.830;2024-01-11T11:37:37;8.97;;;5.67;;
8247;SDS011;4164;49.844;8.830;2024-01-11T11:40:10;9.00;;;5.20;;
8247;SDS011;4164;49.844;8.830;2024-01-11T11:42:35;6.20;;;3.80;;
8247;SDS011;4164;49.844;8.830;2024-01-11T11:45:02;9.33;;;5.77;;
8247;SDS011;4164;49.844;8.830;2024-01-11T11:48:10;8.10;;;4.33;;
8247;SDS011;4164;49.844;8.830;2024-01-11T11:50:21;10.07;;;4.40;;
8247;SDS011;4164;49.844;8.830;2024-01-11T11:52:47;11.57;;;5.50;;
8247;SDS011;4164;49.844;8.830;2024-01-11T11:55:19;5.67;;;3.63;;
8247;SDS011;4164;49.844;8.830;2024-01-11T11:57:45;7.13;;;4.70;;
8247;SDS011;4164;49.844;8.830;2024-01-11T12:00:12;11.60;;;5.13;;
8247;SDS011;4164;49.844;8.830;2024-01-11T12:02:39;9.00;;;5.13;;
8247;SDS011;4164;49.844;8.830;2024-01-11T12:05:05;9.00;;;4.63;;
8247;SDS011;4164;49.844;8.830;2024-01-11T12:07:31;11.40;;;5.60;;
8247;SDS011;4164;49.844;8.830;2024-01-11T12:09:57;5.77;;;4.07;;
8247;SDS011;4164;49.844;8.830;2024-01-11T12:12:22;7.30;;;4.70;;
8247;SDS011;4164;49.844;8.830;2024-01-11T12:14:50;7.27;;;5.47;;
8247;SDS011;4164;49.844;8.830;2024-01-11T12:17:17;8.00;;;4.63;;
8247;SDS011;4164;49.844;8.830;2024-01-11T12:19:43;11.60;;;6.63;;
8247;SDS011;4164;49.844;8.830;2024-01-11T12:22:08;7.80;;;4.57;;
8247;SDS011;4164;49.844;8.830;2024-01-11T12:24:34;8.77;;;4.10;;
8247;SDS011;4164;49.844;8.830;2024-01-11T12:27:00;11.67;;;5.50;;
8247;SDS011;4164;49.844;8.830;2024-01-11T12:29:29;9.33;;;5.63;;
8247;SDS011;4164;49.844;8.830;2024-01-11T12:31:57;9.00;;;5.87;;
8247;SDS011;4164;49.844;8.830;2024-01-11T12:34:24;5.07;;;4.07;;
8247;SDS011;4164;49.844;8.830;2024-01-11T12:36:50;5.90;;;4.83;;
8247;SDS011;4164;49.844;8.830;2024-01-11T12:39:18;8.80;;;4.00;;
8247;SDS011;4164;49.844;8.830;2024-01-11T12:41:47;9.60;;;6.30;;
8247;SDS011;4164;49.844;8.830;2024-01-11T12:44:14;5.33;;;4.00;;
8247;SDS011;4164;49.844;8.830;2024-01-11T12:46:39;6.27;;;3.73;;
8247;SDS011;4164;49.844;8.830;2024-01-11T12:49:08;5.60;;;2.87;;
8247;SDS011;4164;49.844;8.830;2024-01-11T12:51:35;4.17;;;3.13;;
8247;SDS011;4164;49.844;8.830;2024-01-11T12:54:01;6.70;;;3.43;;
8247;SDS011;4164;49.844;8.830;2024-01-11T12:56:29;4.13;;;1.93;;
8247;SDS011;4164;49.844;8.830;2024-01-11T12:59:07;2.03;;;1.83;;
8247;SDS011;4164;49.844;8.830;2024-01-11T13:01:34;3.20;;;1.97;;
8247;SDS011;4164;49.844;8.830;2024-01-11T13:04:04;2.17;;;1.60;;
8247;SDS011;4164;49.844;8.830;2024-01-11T13:06:30;3.43;;;1.50;;
8247;SDS011;4164;49.844;8.830;2024-01-11T13:08:57;3.63;;;2.07;;
8247;SDS011;4164;49.844;8.830;2024-01-11T13:11:22;5.47;;;3.00;;
8247;SDS011;4164;49.844;8.830;2024-01-11T13:13:49;3.13;;;1.97;;
8247;SDS011;4164;49.844;8.830;2024-01-11T13:16:16;8.37;;;2.67;;
8247;SDS011;4164;49.844;8.830;2024-01-11T13:18:43;1.67;;;1.57;;
8247;SDS011;4164;49.844;8.830;2024-01-11T13:21:10;5.03;;;3.10;;
8247;SDS011;4164;49.844;8.830;2024-01-11T13:23:37;5.67;;;3.13;;
8247;SDS011;4164;49.844;8.830;2024-01-11T13:26:03;1.57;;;1.53;;
8247;SDS011;4164;49.844;8.830;2024-01-11T13:28:29;2.93;;;1.97;;
8247;SDS011;4164;49.844;8.830;2024-01-11T13:30:55;2.90;;;1.53;;
8247;SDS011;4164;49.844;8.830;2024-01-11T13:33:21;8.13;;;2.53;;
8247;SDS011;4164;49.844;8.830;2024-01-11T13:35:48;5.67;;;2.33;;
8247;SDS011;4164;49.844;8.830;2024-01-11T13:38:14;5.93;;;1.90;;
8247;SDS011;4164;49.844;8.830;2024-01-11T13:40:40;5.10;;;1.87;;
8247;SDS011;4164;49.844;8.830;2024-01-11T13:43:08;4.40;;;3.13;;
8247;SDS011;4164;49.844;8.830;2024-01-11T13:45:34;1.43;;;1.40;;
8247;SDS011;4164;49.844;8.830;2024-01-11T13:48:03;2.63;;;2.47;;
8247;SDS011;4164;49.844;8.830;2024-01-11T13:50:30;2.53;;;1.90;;
8247;SDS011;4164;49.844;8.830;2024-01-11T13:52:56;2.50;;;2.30;;
8247;SDS011;4164;49.844;8.830;2024-01-11T13:55:21;1.77;;;1.67;;
8247;SDS011;4164;49.844;8.830;2024-01-11T13:57:48;4.90;;;2.00;;
8247;SDS011;4164;49.844;8.830;2024-01-11T14:00:18;1.27;;;1.27;;
8247;SDS011;4164;49.844;8.830;2024-01-11T14:02:44;1.67;;;1.57;;
8247;SDS011;4164;49.844;8.830;2024-01-11T14:05:11;1.27;;;1.27;;
8247;SDS011;4164;49.844;8.830;2024-01-11T14:07:39;2.67;;;1.80;;
8247;SDS011;4164;49.844;8.830;2024-01-11T14:10:10;7.07;;;1.57;;
8247;SDS011;4164;49.844;8.830;2024-01-11T14:12:37;2.00;;;1.90;;
8247;SDS011;4164;49.844;8.830;2024-01-11T14:15:03;0.90;;;0.90;;
8247;SDS011;4164;49.844;8.830;2024-01-11T14:17:30;1.27;;;1.17;;
8247;SDS011;4164;49.844;8.830;2024-01-11T14:19:56;3.73;;;3.47;;
8247;SDS011;4164;49.844;8.830;2024-01-11T14:22:24;7.90;;;1.13;;
8247;SDS011;4164;49.844;8.830;2024-01-11T14:24:50;1.83;;;1.60;;
8247;SDS011;4164;49.844;8.830;2024-01-11T14:27:16;2.33;;;1.33;;
8247;SDS011;4164;49.844;8.830;2024-01-11T14:29:41;0.90;;;0.90;;
8247;SDS011;4164;49.844;8.830;2024-01-11T14:32:07;1.40;;;1.30;;
8247;SDS011;4164;49.844;8.830;2024-01-11T14:34:32;5.77;;;2.93;;
8247;SDS011;4164;49.844;8.830;2024-01-11T14:36:58;2.37;;;1.50;;
8247;SDS011;4164;49.844;8.830;2024-01-11T14:39:24;1.93;;;1.83;;
8247;SDS011;4164;49.844;8.830;2024-01-11T14:41:51;1.43;;;1.33;;
8247;SDS011;4164;49.844;8.830;2024-01-11T14:44:17;0.90;;;0.90;;
8247;SDS011;4164;49.844;8.830;2024-01-11T14:46:43;1.30;;;1.30;;
8247;SDS011;4164;49.844;8.830;2024-01-11T14:49:08;0.93;;;0.93;;
8247;SDS011;4164;49.844;8.830;2024-01-11T14:51:34;0.80;;;0.80;;
8247;SDS011;4164;49.844;8.830;2024-01-11T14:54:02;1.27;;;1.17;;
8247;SDS011;4164;49.844;8.830;2024-01-11T14:56:28;0.50;;;0.50;;
8247;SDS011;4164;49.844;8.830;2024-01-11T14:58:55;0.30;;;0.30;;
8247;SDS011;4164;49.844;8.830;2024-01-11T15:01:20;0.53;;;0.53;;
8247;SDS011;4164;49.844;8.830;2024-01-11T15:03:46;1.23;;;1.13;;
8247;SDS011;4164;49.844;8.830;2024-01-11T15:06:11;0.60;;;0.60;;
8247;SDS011;4164;49.844;8.830;2024-01-11T15:08:37;1.47;;;1.43;;
8247;SDS011;4164;49.844;8.830;2024-01-11T15:11:03;1.17;;;1.03;;
8247;SDS011;4164;49.844;8.830;2024-01-11T15:13:28;0.67;;;0.67;;